Wetterdaten: Woche 09.07.18 - 15.07.18 (KW28)
Datum Zeit Temp. Aussen Temp. o. S. +5cm Feuchte Auss Luftdruck Regen Sonnenschein Regendauer Solar Windben Empfang
09.07.2018 00:00 19,1 C 17,7 C 17,9 C 73 % 1021,3 hPa 0,0 l/m 0,00 h 0,00 h 0 W/m 8,3 km/h (2 Bft) 99,06 %
09.07.2018 01:00 17,9 C 16,6 C 16,8 C 77 % 1021,3 hPa 0,0 l/m 0,00 h 0,00 h 0 W/m 6,9 km/h (2 Bft) 98,93 %
09.07.2018 02:00 17,0 C 15,5 C 16,0 C 81 % 1021,5 hPa 0,0 l/m 0,00 h 0,00 h 0 W/m 3,4 km/h (1 Bft) 96,23 %
09.07.2018 03:00 16,2 C 14,8 C 15,5 C 83 % 1021,5 hPa 0,0 l/m 0,00 h 0,00 h 0 W/m 2,2 km/h (1 Bft) 97,78 %
09.07.2018 04:00 15,2 C 13,3 C 14,4 C 85 % 1021,3 hPa 0,0 l/m 0,00 h 0,00 h 0 W/m 0,3 km/h (0 Bft) 96,00 %
09.07.2018 05:00 14,1 C 12,3 C 13,8 C 87 % 1021,5 hPa 0,0 l/m 0,00 h 0,00 h 8 W/m 0,0 km/h (0 Bft) 97,49 %
09.07.2018 06:00 13,5 C 12,9 C 13,6 C 90 % 1021,8 hPa 0,0 l/m 0,00 h 0,00 h 25 W/m 0,7 km/h (0 Bft) 98,45 %
09.07.2018 07:00 14,1 C 14,8 C 14,6 C 92 % 1022,0 hPa 0,0 l/m 0,00 h 0,00 h 39 W/m 4,2 km/h (1 Bft) 98,60 %
09.07.2018 08:00 15,6 C 17,1 C 15,8 C 89 % 1021,8 hPa 0,0 l/m 0,67 h 0,00 h 260 W/m 5,9 km/h (2 Bft) 96,19 %
09.07.2018 09:00 18,1 C 20,5 C 17,8 C 77 % 1022,0 hPa 0,0 l/m 1,00 h 0,00 h 448 W/m 7,7 km/h (2 Bft) 97,80 %
09.07.2018 10:00 19,8 C 21,3 C 18,7 C 70 % 1021,8 hPa 0,0 l/m 1,00 h 0,00 h 598 W/m 10,1 km/h (2 Bft) 97,94 %
09.07.2018 11:00 22,0 C 27,5 C 20,4 C 65 % 1021,4 hPa 0,0 l/m 0,90 h 0,00 h 618 W/m 8,8 km/h (2 Bft) 96,94 %
09.07.2018 12:00 24,5 C 31,1 C 21,9 C 58 % 1020,9 hPa 0,0 l/m 0,93 h 0,00 h 771 W/m 10,5 km/h (2 Bft) 99,33 %
09.07.2018 13:00 23,9 C 25,8 C 22,1 C 60 % 1020,7 hPa 0,0 l/m 0,33 h 0,00 h 471 W/m 11,9 km/h (2 Bft) 95,87 %
09.07.2018 14:00 24,4 C 25,4 C 22,9 C 60 % 1020,2 hPa 0,0 l/m 0,53 h 0,00 h 444 W/m 12,0 km/h (2 Bft) 97,57 %
09.07.2018 15:00 24,6 C 26,1 C 23,2 C 60 % 1019,8 hPa 0,0 l/m 0,93 h 0,00 h 542 W/m 11,7 km/h (2 Bft) 98,86 %
09.07.2018 16:00 24,7 C 25,3 C 23,0 C 59 % 1019,3 hPa 0,0 l/m 0,17 h 0,00 h 297 W/m 10,9 km/h (2 Bft) 96,73 %
09.07.2018 17:00 23,7 C 23,4 C 22,0 C 62 % 1018,9 hPa 0,0 l/m 0,00 h 0,00 h 157 W/m 12,4 km/h (3 Bft) 98,08 %
09.07.2018 18:00 23,3 C 23,4 C 21,7 C 66 % 1018,7 hPa 0,0 l/m 0,57 h 0,00 h 203 W/m 11,6 km/h (2 Bft) 97,23 %
09.07.2018 19:00 22,7 C 21,9 C 21,0 C 68 % 1018,3 hPa 0,0 l/m 0,00 h 0,13 h 63 W/m 11,3 km/h (2 Bft) 97,88 %
09.07.2018 20:00 21,4 C 20,5 C 20,0 C 75 % 1018,3 hPa 0,0 l/m 0,07 h 0,03 h 54 W/m 11,1 km/h (2 Bft) 98,22 %
09.07.2018 21:00 20,6 C 19,6 C 19,2 C 77 % 1018,2 hPa 0,0 l/m 0,40 h 0,00 h 24 W/m 11,9 km/h (2 Bft) 95,80 %
09.07.2018 22:00 19,2 C 17,9 C 17,7 C 80 % 1018,6 hPa 0,0 l/m 0,00 h 0,00 h 0 W/m 11,9 km/h (2 Bft) 98,42 %
09.07.2018 23:00 18,0 C 17,1 C 16,9 C 81 % 1018,5 hPa 0,0 l/m 0,00 h 0,00 h 0 W/m 10,4 km/h (2 Bft) 98,22 %
10.07.2018 00:00 17,2 C 16,6 C 16,3 C 78 % 1018,2 hPa 0,0 l/m 0,00 h 0,00 h 0 W/m 12,3 km/h (3 Bft) 96,83 %
10.07.2018 01:00 16,8 C 16,0 C 15,9 C 77 % 1018,1 hPa 0,0 l/m 0,00 h 0,00 h 0 W/m 13,3 km/h (3 Bft) 96,94 %
10.07.2018 02:00 16,0 C 15,2 C 15,1 C 76 % 1017,9 hPa 0,0 l/m 0,00 h 0,00 h 0 W/m 14,7 km/h (3 Bft) 97,92 %
10.07.2018 03:00 15,2 C 14,2 C 14,2 C 79 % 1017,7 hPa 0,0 l/m 0,00 h 0,00 h 0 W/m 14,3 km/h (3 Bft) 98,29 %
10.07.2018 04:00 14,2 C 13,4 C 13,4 C 82 % 1017,6 hPa 0,0 l/m 0,00 h 0,00 h 0 W/m 12,4 km/h (3 Bft) 96,79 %
10.07.2018 05:00 13,9 C 13,3 C 13,3 C 83 % 1017,3 hPa 0,0 l/m 0,00 h 0,00 h 6 W/m 6,5 km/h (2 Bft) 96,54 %
10.07.2018 06:00 14,0 C 13,7 C 13,3 C 83 % 1017,3 hPa 0,0 l/m 0,00 h 0,00 h 32 W/m 5,0 km/h (1 Bft) 98,45 %
10.07.2018 07:00 14,3 C 14,4 C 13,9 C 83 % 1017,0 hPa 0,0 l/m 0,00 h 0,00 h 89 W/m 7,1 km/h (2 Bft) 97,93 %
10.07.2018 08:00 15,3 C 16,2 C 14,8 C 78 % 1016,6 hPa 0,0 l/m 0,37 h 0,00 h 209 W/m 10,4 km/h (2 Bft) 96,17 %
10.07.2018 09:00 15,8 C 16,3 C 15,1 C 74 % 1016,5 hPa 0,0 l/m 0,13 h 0,00 h 229 W/m 12,6 km/h (3 Bft) 98,57 %
10.07.2018 10:00 16,6 C 17,3 C 15,8 C 72 % 1016,1 hPa 0,0 l/m 0,20 h 0,03 h 237 W/m 11,2 km/h (2 Bft) 98,20 %
10.07.2018 11:00 16,4 C 16,1 C 15,6 C 74 % 1015,8 hPa 0,0 l/m 0,00 h 0,17 h 148 W/m 9,5 km/h (2 Bft) 95,25 %
10.07.2018 12:00 16,5 C 16,5 C 15,9 C 73 % 1015,4 hPa 0,0 l/m 0,00 h 0,07 h 146 W/m 10,1 km/h (2 Bft) 98,72 %
10.07.2018 13:00 17,1 C 17,2 C 16,5 C 74 % 1014,9 hPa 0,0 l/m 0,00 h 0,17 h 206 W/m 12,4 km/h (3 Bft) 97,79 %
10.07.2018 14:00 16,6 C 16,3 C 15,8 C 83 % 1014,8 hPa 0,0 l/m 0,20 h 0,27 h 266 W/m 9,4 km/h (2 Bft) 96,52 %
10.07.2018 15:00 18,3 C 19,1 C 17,7 C 78 % 1014,1 hPa 0,0 l/m 0,27 h 0,00 h 275 W/m 12,4 km/h (3 Bft) 98,06 %
10.07.2018 16:00 18,7 C 19,1 C 17,9 C 78 % 1013,3 hPa 0,0 l/m 0,23 h 0,03 h 303 W/m 12,4 km/h (3 Bft) 97,52 %
10.07.2018 17:00 18,9 C 19,0 C 17,9 C 80 % 1012,9 hPa 0,0 l/m 0,20 h 0,03 h 248 W/m 13,2 km/h (3 Bft) 97,16 %
10.07.2018 18:00 18,6 C 18,1 C 17,6 C 85 % 1012,4 hPa 0,0 l/m 0,13 h 0,23 h 144 W/m 10,7 km/h (2 Bft) 96,94 %
10.07.2018 19:00 19,4 C 19,6 C 18,7 C 77 % 1012,2 hPa 0,0 l/m 0,17 h 0,00 h 121 W/m 13,7 km/h (3 Bft) 98,72 %
10.07.2018 20:00 19,3 C 18,9 C 18,2 C 61 % 1012,8 hPa 0,0 l/m 0,17 h 0,00 h 66 W/m 14,6 km/h (3 Bft) 97,22 %
10.07.2018 21:00 18,6 C 17,6 C 17,4 C 62 % 1013,3 hPa 0,0 l/m 0,00 h 0,00 h 18 W/m 12,5 km/h (3 Bft) 95,86 %
10.07.2018 22:00 18,0 C 17,2 C 17,0 C 65 % 1013,9 hPa 0,0 l/m 0,00 h 0,00 h 0 W/m 11,1 km/h (2 Bft) 98,65 %
10.07.2018 23:00 17,1 C 15,8 C 15,9 C 67 % 1014,4 hPa 0,0 l/m 0,00 h 0,00 h 0 W/m 6,9 km/h (2 Bft) 97,60 %
11.07.2018 00:00 15,8 C 13,8 C 14,4 C 73 % 1014,7 hPa 0,0 l/m 0,00 h 0,00 h 0 W/m 2,5 km/h (1 Bft) 97,48 %
11.07.2018 01:00 14,6 C 13,4 C 14,1 C 79 % 1014,8 hPa 0,0 l/m 0,00 h 0,00 h 0 W/m 1,8 km/h (1 Bft) 97,01 %
11.07.2018 02:00 14,2 C 13,2 C 13,7 C 81 % 1014,8 hPa 0,0 l/m 0,00 h 0,00 h 0 W/m 3,3 km/h (1 Bft) 96,45 %
11.07.2018 03:00 13,4 C 12,0 C 12,6 C 84 % 1014,9 hPa 0,0 l/m 0,00 h 0,00 h 0 W/m 3,1 km/h (1 Bft) 98,52 %
11.07.2018 04:00 12,8 C 12,1 C 12,6 C 87 % 1015,0 hPa 0,0 l/m 0,00 h 0,00 h 0 W/m 1,4 km/h (1 Bft) 96,81 %
11.07.2018 05:00 12,3 C 11,0 C 11,6 C 88 % 1015,1 hPa 0,0 l/m 0,00 h 0,00 h 7 W/m 0,5 km/h (0 Bft) 99,29 %
11.07.2018 06:00 11,7 C 10,9 C 11,3 C 90 % 1015,3 hPa 0,0 l/m 0,00 h 0,00 h 25 W/m 1,9 km/h (1 Bft) 97,18 %
11.07.2018 07:00 12,0 C 12,4 C 12,3 C 92 % 1015,5 hPa 0,0 l/m 0,00 h 0,00 h 42 W/m 5,0 km/h (1 Bft) 94,59 %
11.07.2018 08:00 13,5 C 15,0 C 13,9 C 92 % 1015,9 hPa 0,0 l/m 0,67 h 0,00 h 248 W/m 5,9 km/h (2 Bft) 99,41 %
11.07.2018 09:00 16,0 C 17,7 C 15,9 C 83 % 1016,0 hPa 0,0 l/m 1,00 h 0,00 h 471 W/m 9,0 km/h (2 Bft) 97,72 %
11.07.2018 10:00 18,6 C 20,8 C 18,0 C 71 % 1015,6 hPa 0,0 l/m 0,97 h 0,00 h 637 W/m 11,1 km/h (2 Bft) 95,06 %
11.07.2018 11:00 20,6 C 25,4 C 19,1 C 63 % 1015,4 hPa 0,0 l/m 0,47 h 0,00 h 501 W/m 11,1 km/h (2 Bft) 99,52 %
11.07.2018 12:00 22,8 C 29,0 C 20,6 C 55 % 1015,2 hPa 0,0 l/m 0,83 h 0,00 h 788 W/m 14,3 km/h (3 Bft) 97,95 %
11.07.2018 13:00 23,3 C 26,4 C 21,3 C 54 % 1014,9 hPa 0,0 l/m 0,70 h 0,00 h 634 W/m 16,2 km/h (3 Bft) 96,81 %
11.07.2018 14:00 23,1 C 24,0 C 22,0 C 58 % 1014,5 hPa 0,0 l/m 0,93 h 0,00 h 894 W/m 14,5 km/h (3 Bft) 97,37 %
11.07.2018 15:00 23,8 C 24,3 C 22,1 C 57 % 1014,0 hPa 0,0 l/m 0,23 h 0,00 h 422 W/m 16,4 km/h (3 Bft) 98,72 %
11.07.2018 16:00 22,0 C 20,4 C 20,0 C 66 % 1014,2 hPa 0,0 l/m 0,00 h 0,27 h 70 W/m 15,4 km/h (3 Bft) 97,24 %
11.07.2018 17:00 20,4 C 20,4 C 19,4 C 76 % 1014,1 hPa 0,0 l/m 0,00 h 0,13 h 154 W/m 8,6 km/h (2 Bft) 95,64 %
11.07.2018 18:00 19,2 C 16,7 C 16,5 C 87 % 1014,2 hPa 1,2 l/m 0,00 h 0,33 h 59 W/m 5,0 km/h (1 Bft) 99,56 %
11.07.2018 19:00 18,3 C 17,0 C 16,7 C 93 % 1014,0 hPa 0,0 l/m 0,00 h 0,00 h 43 W/m 1,4 km/h (1 Bft) 98,72 %
11.07.2018 20:00 18,3 C 17,0 C 16,7 C 94 % 1014,3 hPa 0,2 l/m 0,00 h 0,23 h 19 W/m 0,5 km/h (0 Bft) 94,56 %
11.07.2018 21:00 18,1 C 16,8 C 16,7 C 94 % 1014,5 hPa 0,0 l/m 0,00 h 0,00 h 8 W/m 0,0 km/h (0 Bft) 99,79 %
11.07.2018 22:00 17,8 C 16,4 C 16,4 C 95 % 1014,8 hPa 0,0 l/m 0,00 h 0,20 h 0 W/m 2,0 km/h (1 Bft) 98,18 %
11.07.2018 23:00 17,1 C 15,7 C 15,6 C 95 % 1015,2 hPa 0,0 l/m 0,00 h 0,07 h 0 W/m 2,8 km/h (1 Bft) 95,96 %
12.07.2018 00:00 16,8 C 15,6 C 15,6 C 95 % 1015,1 hPa 0,0 l/m 0,00 h 0,00 h 0 W/m 0,0 km/h (0 Bft) 97,96 %
12.07.2018 01:00 16,7 C 15,6 C 15,6 C 96 % 1015,0 hPa 0,0 l/m 0,00 h 0,00 h 0 W/m 0,0 km/h (0 Bft) 97,65 %
12.07.2018 02:00 16,6 C 15,6 C 15,6 C 97 % 1015,1 hPa 0,0 l/m 0,00 h 0,00 h 0 W/m 0,0 km/h (0 Bft) 97,87 %
12.07.2018 03:00 16,5 C 15,6 C 15,6 C 97 % 1015,0 hPa 0,0 l/m 0,00 h 0,00 h 0 W/m 0,0 km/h (0 Bft) 98,52 %
12.07.2018 04:00 16,3 C 15,5 C 15,6 C 97 % 1015,0 hPa 0,0 l/m 0,00 h 0,00 h 0 W/m 0,0 km/h (0 Bft) 95,22 %
12.07.2018 05:00 15,9 C 14,6 C 14,9 C 97 % 1015,0 hPa 0,0 l/m 0,00 h 0,00 h 9 W/m 0,1 km/h (0 Bft) 98,19 %
12.07.2018 06:00 15,1 C 13,9 C 14,4 C 97 % 1015,4 hPa 0,0 l/m 0,00 h 0,00 h 28 W/m 4,9 km/h (1 Bft) 98,97 %
12.07.2018 07:00 15,0 C 14,5 C 14,6 C 97 % 1015,6 hPa 0,0 l/m 0,00 h 0,00 h 52 W/m 7,5 km/h (2 Bft) 96,55 %
12.07.2018 08:00 15,8 C 16,1 C 15,8 C 97 % 1016,0 hPa 0,0 l/m 0,57 h 0,00 h 218 W/m 6,5 km/h (2 Bft) 96,60 %
12.07.2018 09:00 17,3 C 19,0 C 16,9 C 95 % 1016,3 hPa 0,0 l/m 0,60 h 0,00 h 364 W/m 6,3 km/h (2 Bft) 99,15 %
12.07.2018 10:00 18,9 C 21,7 C 18,3 C 87 % 1016,6 hPa 0,0 l/m 0,87 h 0,00 h 565 W/m 8,9 km/h (2 Bft) 96,36 %
12.07.2018 11:00 21,7 C 28,0 C 19,7 C 78 % 1016,7 hPa 0,0 l/m 0,93 h 0,00 h 732 W/m 9,3 km/h (2 Bft) 98,00 %
12.07.2018 12:00 23,7 C 29,8 C 20,9 C 72 % 1016,6 hPa 0,0 l/m 0,80 h 0,00 h 687 W/m 9,5 km/h (2 Bft) 99,19 %
12.07.2018 13:00 24,9 C 30,5 C 22,6 C 66 % 1016,5 hPa 0,0 l/m 0,97 h 0,00 h 913 W/m 10,1 km/h (2 Bft) 96,16 %
12.07.2018 14:00 25,4 C 26,2 C 23,3 C 63 % 1016,2 hPa 0,0 l/m 0,70 h 0,00 h 695 W/m 9,2 km/h (2 Bft) 97,14 %
12.07.2018 15:00 25,9 C 26,7 C 23,8 C 59 % 1016,0 hPa 0,0 l/m 0,63 h 0,00 h 604 W/m 7,9 km/h (2 Bft) 98,39 %
12.07.2018 16:00 26,9 C 31,5 C 24,4 C 55 % 1015,6 hPa 0,0 l/m 0,97 h 0,00 h 810 W/m 9,2 km/h (2 Bft) 97,94 %
12.07.2018 17:00 28,0 C 29,2 C 25,7 C 49 % 1015,3 hPa 0,0 l/m 1,00 h 0,00 h 702 W/m 11,8 km/h (2 Bft) 98,55 %
12.07.2018 18:00 27,2 C 26,7 C 24,7 C 52 % 1015,3 hPa 0,0 l/m 0,50 h 0,00 h 314 W/m 11,4 km/h (2 Bft) 96,74 %
12.07.2018 19:00 26,3 C 26,3 C 24,4 C 55 % 1015,5 hPa 0,0 l/m 0,87 h 0,00 h 289 W/m 11,1 km/h (2 Bft) 97,17 %
12.07.2018 20:00 24,7 C 23,0 C 22,2 C 60 % 1016,1 hPa 0,0 l/m 0,00 h 0,13 h 45 W/m 11,4 km/h (2 Bft) 98,27 %
12.07.2018 21:00 21,5 C 17,6 C 17,7 C 79 % 1016,5 hPa 1,2 l/m 0,30 h 0,47 h 22 W/m 4,5 km/h (1 Bft) 95,80 %
12.07.2018 22:00 19,3 C 16,9 C 16,8 C 89 % 1016,9 hPa 0,0 l/m 0,00 h 0,00 h 0 W/m 1,4 km/h (1 Bft) 96,41 %
12.07.2018 23:00 18,2 C 16,3 C 16,2 C 91 % 1017,4 hPa 0,0 l/m 0,00 h 0,00 h 0 W/m 0,7 km/h (0 Bft) 99,44 %
13.07.2018 00:00 17,1 C 15,1 C 15,2 C 91 % 1017,6 hPa 0,0 l/m 0,00 h 0,00 h 0 W/m 2,4 km/h (1 Bft) 93,69 %
13.07.2018 01:00 16,0 C 14,3 C 14,5 C 91 % 1017,8 hPa 0,0 l/m 0,00 h 0,00 h 0 W/m 2,7 km/h (1 Bft) 97,38 %
13.07.2018 02:00 15,3 C 13,9 C 14,5 C 91 % 1017,9 hPa 0,0 l/m 0,00 h 0,00 h 0 W/m 4,3 km/h (1 Bft) 97,78 %
13.07.2018 03:00 14,8 C 13,7 C 14,1 C 92 % 1018,0 hPa 0,0 l/m 0,00 h 0,00 h 0 W/m 1,7 km/h (1 Bft) 96,40 %
13.07.2018 04:00 14,3 C 13,2 C 13,8 C 93 % 1018,2 hPa 0,0 l/m 0,00 h 0,00 h 0 W/m 0,5 km/h (0 Bft) 99,07 %
13.07.2018 05:00 14,1 C 12,9 C 13,3 C 95 % 1018,5 hPa 0,0 l/m 0,00 h 0,00 h 9 W/m 0,8 km/h (0 Bft) 98,38 %
13.07.2018 06:00 13,8 C 12,9 C 13,3 C 95 % 1018,6 hPa 0,0 l/m 0,00 h 0,00 h 26 W/m 1,5 km/h (1 Bft) 95,78 %
13.07.2018 07:00 14,3 C 14,5 C 14,1 C 97 % 1018,8 hPa 0,0 l/m 0,00 h 0,00 h 49 W/m 3,8 km/h (1 Bft) 97,67 %
13.07.2018 08:00 15,3 C 16,5 C 15,5 C 97 % 1018,9 hPa 0,0 l/m 0,67 h 0,00 h 228 W/m 5,0 km/h (1 Bft) 97,79 %
13.07.2018 09:00 16,7 C 18,7 C 16,9 C 96 % 1019,1 hPa 0,0 l/m 1,00 h 0,00 h 471 W/m 5,4 km/h (1 Bft) 97,58 %
13.07.2018 10:00 18,8 C 21,5 C 18,3 C 83 % 1019,0 hPa 0,0 l/m 1,00 h 0,00 h 605 W/m 6,9 km/h (2 Bft) 97,01 %
13.07.2018 11:00 22,0 C 30,9 C 19,7 C 70 % 1019,0 hPa 0,0 l/m 1,00 h 0,00 h 737 W/m 8,3 km/h (2 Bft) 97,37 %
13.07.2018 12:00 25,2 C 33,7 C 21,7 C 59 % 1019,0 hPa 0,0 l/m 1,00 h 0,00 h 824 W/m 8,9 km/h (2 Bft) 97,55 %
13.07.2018 13:00 26,3 C 31,1 C 23,1 C 56 % 1018,7 hPa 0,0 l/m 1,00 h 0,00 h 873 W/m 8,6 km/h (2 Bft) 97,77 %
13.07.2018 14:00 26,2 C 26,4 C 23,8 C 55 % 1018,1 hPa 0,0 l/m 1,00 h 0,00 h 879 W/m 8,9 km/h (2 Bft) 96,21 %
13.07.2018 15:00 26,8 C 27,8 C 24,4 C 52 % 1017,7 hPa 0,0 l/m 1,00 h 0,00 h 841 W/m 9,0 km/h (2 Bft) 98,00 %
13.07.2018 16:00 27,8 C 31,8 C 24,8 C 49 % 1017,4 hPa 0,0 l/m 1,00 h 0,00 h 758 W/m 8,4 km/h (2 Bft) 98,94 %
13.07.2018 17:00 28,1 C 28,3 C 24,6 C 48 % 1017,2 hPa 0,0 l/m 0,97 h 0,00 h 623 W/m 8,9 km/h (2 Bft) 95,10 %
13.07.2018 18:00 27,3 C 25,8 C 20,5 C 50 % 1017,0 hPa 0,0 l/m 1,00 h 0,00 h 541 W/m 7,5 km/h (2 Bft) 97,08 %
13.07.2018 19:00 26,3 C 23,8 C 18,7 C 51 % 1016,8 hPa 0,0 l/m 0,73 h 0,00 h 248 W/m 8,4 km/h (2 Bft) 99,64 %
13.07.2018 20:00 24,6 C 21,2 C 16,7 C 57 % 1016,6 hPa 0,0 l/m 0,00 h 0,00 h 48 W/m 5,9 km/h (2 Bft) 96,98 %
13.07.2018 21:00 22,8 C 19,7 C 16,1 C 63 % 1016,9 hPa 0,0 l/m 0,00 h 0,00 h 15 W/m 3,6 km/h (1 Bft) 96,58 %
13.07.2018 22:00 21,3 C 19,8 C 17,4 C 69 % 1017,2 hPa 0,0 l/m 0,00 h 0,00 h 0 W/m 5,4 km/h (1 Bft) 99,57 %
13.07.2018 23:00 20,6 C 19,3 C 18,8 C 72 % 1017,5 hPa 0,0 l/m 0,00 h 0,00 h 0 W/m 5,1 km/h (1 Bft) 97,03 %
14.07.2018 00:00 20,0 C 19,0 C 18,4 C 74 % 1017,6 hPa 0,0 l/m 0,00 h 0,00 h 0 W/m 6,1 km/h (2 Bft) 96,01 %
14.07.2018 01:00 19,4 C 18,1 C 17,8 C 77 % 1017,6 hPa 0,0 l/m 0,00 h 0,00 h 0 W/m 4,6 km/h (1 Bft) 98,79 %
14.07.2018 02:00 18,6 C 17,2 C 17,0 C 80 % 1017,5 hPa 0,0 l/m 0,00 h 0,00 h 0 W/m 2,8 km/h (1 Bft) 96,20 %
14.07.2018 03:00 17,8 C 16,3 C 16,4 C 83 % 1017,6 hPa 0,0 l/m 0,00 h 0,00 h 0 W/m 1,8 km/h (1 Bft) 98,79 %
14.07.2018 04:00 17,0 C 15,7 C 15,8 C 86 % 1017,7 hPa 0,0 l/m 0,00 h 0,00 h 0 W/m 2,3 km/h (1 Bft) 96,97 %
14.07.2018 05:00 16,3 C 14,9 C 15,1 C 88 % 1017,7 hPa 0,0 l/m 0,00 h 0,00 h 8 W/m 0,6 km/h (0 Bft) 96,23 %
14.07.2018 06:00 15,7 C 14,7 C 15,0 C 90 % 1017,6 hPa 0,0 l/m 0,00 h 0,00 h 32 W/m 1,4 km/h (1 Bft) 99,85 %
14.07.2018 07:00 15,7 C 16,1 C 15,4 C 91 % 1017,8 hPa 0,0 l/m 0,00 h 0,00 h 67 W/m 2,2 km/h (1 Bft) 98,59 %
14.07.2018 08:00 16,7 C 18,2 C 16,7 C 91 % 1018,2 hPa 0,0 l/m 0,63 h 0,00 h 228 W/m 4,9 km/h (1 Bft) 95,36 %
14.07.2018 09:00 18,7 C 20,3 C 18,2 C 86 % 1018,4 hPa 0,0 l/m 1,00 h 0,00 h 433 W/m 9,7 km/h (2 Bft) 99,56 %
14.07.2018 10:00 20,6 C 23,0 C 19,6 C 78 % 1018,4 hPa 0,0 l/m 1,00 h 0,00 h 575 W/m 9,6 km/h (2 Bft) 97,22 %
14.07.2018 11:00 23,5 C 30,9 C 21,2 C 70 % 1018,2 hPa 0,0 l/m 1,00 h 0,00 h 701 W/m 9,0 km/h (2 Bft) 95,59 %
14.07.2018 12:00 26,0 C 33,8 C 22,6 C 62 % 1017,7 hPa 0,0 l/m 1,00 h 0,00 h 808 W/m 8,8 km/h (2 Bft) 99,08 %
14.07.2018 13:00 26,7 C 31,9 C 23,8 C 57 % 1017,5 hPa 0,0 l/m 1,00 h 0,00 h 889 W/m 9,5 km/h (2 Bft) 97,51 %
14.07.2018 14:00 26,6 C 26,7 C 24,3 C 55 % 1017,0 hPa 0,0 l/m 0,93 h 0,00 h 862 W/m 10,3 km/h (2 Bft) 96,94 %
14.07.2018 15:00 27,0 C 28,0 C 24,6 C 52 % 1016,6 hPa 0,0 l/m 1,00 h 0,00 h 853 W/m 11,7 km/h (2 Bft) 97,22 %
14.07.2018 16:00 27,7 C 31,6 C 25,1 C 48 % 1016,1 hPa 0,0 l/m 1,00 h 0,00 h 768 W/m 11,2 km/h (2 Bft) 98,01 %
14.07.2018 17:00 28,0 C 28,9 C 25,6 C 47 % 1015,8 hPa 0,0 l/m 1,00 h 0,00 h 650 W/m 9,9 km/h (2 Bft) 97,79 %
14.07.2018 18:00 27,8 C 27,6 C 25,6 C 46 % 1015,7 hPa 0,0 l/m 1,00 h 0,00 h 500 W/m 10,7 km/h (2 Bft) 99,36 %
14.07.2018 19:00 26,8 C 26,0 C 24,4 C 47 % 1015,5 hPa 0,0 l/m 0,83 h 0,00 h 283 W/m 10,3 km/h (2 Bft) 95,88 %
14.07.2018 20:00 25,1 C 23,9 C 22,9 C 50 % 1015,5 hPa 0,0 l/m 0,00 h 0,00 h 32 W/m 9,0 km/h (2 Bft) 97,79 %
14.07.2018 21:00 23,6 C 22,0 C 21,4 C 55 % 1015,6 hPa 0,0 l/m 0,00 h 0,00 h 12 W/m 5,7 km/h (1 Bft) 97,79 %
14.07.2018 22:00 22,2 C 20,5 C 19,9 C 58 % 1015,9 hPa 0,0 l/m 0,00 h 0,00 h 0 W/m 3,9 km/h (1 Bft) 97,22 %
14.07.2018 23:00 20,8 C 19,1 C 19,0 C 61 % 1016,0 hPa 0,0 l/m 0,00 h 0,00 h 0 W/m 4,1 km/h (1 Bft) 96,79 %
15.07.2018 00:00 19,5 C 17,5 C 17,8 C 67 % 1016,3 hPa 0,0 l/m 0,00 h 0,00 h 0 W/m 2,7 km/h (1 Bft) 98,02 %
15.07.2018 01:00 18,1 C 16,7 C 16,8 C 70 % 1016,1 hPa 0,0 l/m 0,00 h 0,00 h 0 W/m 2,0 km/h (1 Bft) 98,15 %
15.07.2018 02:00 17,3 C 16,2 C 16,3 C 73 % 1015,9 hPa 0,0 l/m 0,00 h 0,00 h 0 W/m 1,7 km/h (1 Bft) 96,79 %
15.07.2018 03:00 16,6 C 15,0 C 15,5 C 77 % 1015,9 hPa 0,0 l/m 0,00 h 0,00 h 0 W/m 0,8 km/h (0 Bft) 96,86 %
15.07.2018 04:00 15,7 C 14,3 C 14,3 C 80 % 1015,7 hPa 0,0 l/m 0,00 h 0,00 h 0 W/m 0,0 km/h (0 Bft) 96,87 %
15.07.2018 05:00 14,9 C 13,8 C 13,9 C 83 % 1015,6 hPa 0,0 l/m 0,00 h 0,00 h 7 W/m 0,5 km/h (0 Bft) 99,78 %
15.07.2018 06:00 14,6 C 14,1 C 14,2 C 86 % 1015,3 hPa 0,0 l/m 0,00 h 0,00 h 20 W/m 0,7 km/h (0 Bft) 97,06 %
15.07.2018 07:00 15,0 C 15,9 C 15,6 C 89 % 1015,4 hPa 0,0 l/m 0,00 h 0,00 h 33 W/m 2,0 km/h (1 Bft) 95,55 %
15.07.2018 08:00 16,8 C 19,1 C 17,6 C 88 % 1015,5 hPa 0,0 l/m 0,60 h 0,00 h 232 W/m 4,5 km/h (1 Bft) 99,44 %
15.07.2018 09:00 19,9 C 22,2 C 19,9 C 75 % 1015,3 hPa 0,0 l/m 1,00 h 0,00 h 481 W/m 5,9 km/h (2 Bft) 95,88 %
15.07.2018 10:00 22,6 C 25,4 C 21,4 C 61 % 1015,2 hPa 0,0 l/m 1,00 h 0,00 h 626 W/m 7,3 km/h (2 Bft) 97,51 %
15.07.2018 11:00 25,8 C 34,6 C 22,9 C 51 % 1015,1 hPa 0,0 l/m 1,00 h 0,00 h 741 W/m 8,8 km/h (2 Bft) 99,01 %
15.07.2018 12:00 28,3 C 36,6 C 24,3 C 46 % 1014,9 hPa 0,0 l/m 1,00 h 0,00 h 830 W/m 9,7 km/h (2 Bft) 96,78 %
15.07.2018 13:00 28,5 C 33,4 C 25,4 C 45 % 1014,4 hPa 0,0 l/m 1,00 h 0,00 h 879 W/m 10,0 km/h (2 Bft) 98,82 %
15.07.2018 14:00 28,2 C 28,0 C 25,7 C 45 % 1013,9 hPa 0,0 l/m 1,00 h 0,00 h 888 W/m 9,1 km/h (2 Bft) 96,87 %
15.07.2018 15:00 28,8 C 29,7 C 26,1 C 44 % 1013,1 hPa 0,0 l/m 1,00 h 0,00 h 848 W/m 8,4 km/h (2 Bft) 97,49 %
15.07.2018 16:00 29,6 C 33,8 C 26,7 C 41 % 1012,7 hPa 0,0 l/m 1,00 h 0,00 h 768 W/m 9,9 km/h (2 Bft) 98,45 %
15.07.2018 17:00 29,9 C 31,0 C 27,3 C 40 % 1012,2 hPa 0,0 l/m 1,00 h 0,00 h 647 W/m 9,0 km/h (2 Bft) 98,51 %
15.07.2018 18:00 29,6 C 29,5 C 27,5 C 39 % 1011,8 hPa 0,0 l/m 1,00 h 0,00 h 499 W/m 8,4 km/h (2 Bft) 94,20 %
15.07.2018 19:00 28,5 C 27,5 C 25,5 C 40 % 1011,6 hPa 0,0 l/m 0,73 h 0,00 h 250 W/m 7,6 km/h (2 Bft) 96,71 %
15.07.2018 20:00 26,2 C 24,4 C 22,7 C 45 % 1011,9 hPa 0,0 l/m 0,00 h 0,00 h 29 W/m 5,4 km/h (1 Bft) 98,52 %
15.07.2018 21:00 23,8 C 20,0 C 15,9 C 53 % 1012,2 hPa 0,0 l/m 0,00 h 0,00 h 11 W/m 2,0 km/h (1 Bft) 98,36 %
15.07.2018 22:00 21,4 C 17,0 C 14,1 C 58 % 1012,7 hPa 0,0 l/m 0,00 h 0,00 h 0 W/m 0,5 km/h (0 Bft) 95,76 %
15.07.2018 23:00 19,5 C 16,0 C 14,0 C 66 % 1012,8 hPa 0,0 l/m 0,00 h 0,00 h 0 W/m 0,5 km/h (0 Bft) 98,45 %
Min-Datum _ 11.07.18 11.07.18 11.07.18 15.07.18 15.07.18 - - - - 09.07.18 13.07.18
_ Min-Zeit 06:20 05:40 05:32 18:26 19:20 - - - - 02:30 00:02
Minimum _ 11,6 C 10,6 C 11,1 C 37 % 1011,5 hPa - - - - 0,0 km/h (0 Bft) 9,09 %
Max-Datum _ 15.07.18 15.07.18 15.07.18 13.07.18 09.07.18 11.07.18 09.07.18 10.07.18 11.07.18 11.07.18 09.07.18
_ Max-Zeit 17:20 12:24 17:48 08:28 07:06 18:10 12:08 18:08 13:26 15:06 00:18
Maximum _ 30,0 C 37,8 C 27,8 C 98 % 1022,2 hPa 1,2 l/m 0,07 h 0,07 h 1150 W/m 31,5 km/h
NW (5 Bft)
100,00 %
Durchschnitt _ 20,0 C 20,3 C 18,3 C 73 % 1016,5 hPa #2,6 l/m #59:10 h #3:00 h 362 W/m 7,0 km/h (2 Bft) 97,50 %
© 2018 W. Hausmann